Accueil
METAR-TAF:

METAR-TAF

Aéroports :

Aéroport de Plaine Corail

Rodrigues, Maurice

latitude: 19-41S, longitude: 063-25E, altitude: 58 m

Observation

Le bulletin a été fait il y a 54 minutes, à 00:00 UTC
Vent 17 kt de est/sud-est
Température 22°C
Humidité 83%
Pression 1020 hPa
Visibilité: 8000 m
Nuages fragmentés à une hauteur de 1700 ft
Nuages épars à une hauteur de 5000 ft
faibles averses de pluie,

METAR: FIMR 210000Z 12017KT 8000 -SHRA BKN017 SCT050 22/19 Q1020

Heure: 04:54 (00:54 UTC)

Prévision

Le bulletin a été fait il y a 1 heure et 24 minutes, à 23:30 UTC
Prévision valable du 21 à 00 UTC au 21 à 18 UTC
Vent 20 kt de est/sud-est avec des rafales jusqu'à 35 kt
Visibilité 10 km ou plus
Nuages épars à une hauteur de 1700 ft

TAF: FIMR 202330Z 2100/2118 12020G35KT 9999 SCT017

Observations et prévisions météorologiques de plus de 4000 aéroports (messages METAR et TAF).

Les stations disponibles sont représentées par des disques jaunes et rouges sur la carte.

Passer la souris dessus pour voir le nom de la station.

Cliquer dessus pour voir les observations et prévisions météorologiques.

Pour changer de carte: cliquez sur les boutons verts avec une croix noire pour zoomer, sur le bouton vert avec un tiret pour effectuer un zoom arrière, ou sur les flèches vertes pour les cartes adjacentes.


METAR-TAF: